createdAt,value
2022-08-23T00:02:27.583Z,99.90
2022-08-23T00:05:07.795Z,99.90
2022-08-23T00:07:39.155Z,99.90
2022-08-23T00:10:09.075Z,99.90
2022-08-23T00:12:37.328Z,99.90
2022-08-23T00:15:07.692Z,99.90
2022-08-23T00:17:39.287Z,99.90
2022-08-23T00:20:09.682Z,99.90
2022-08-23T00:22:38.458Z,99.90
2022-08-23T00:25:07.494Z,99.90
2022-08-23T00:27:35.602Z,99.90
2022-08-23T00:30:06.689Z,99.90
2022-08-23T00:32:38.551Z,99.90
2022-08-23T00:35:08.000Z,99.90
2022-08-23T00:37:36.062Z,99.90
2022-08-23T00:40:05.172Z,99.90
2022-08-23T00:42:56.703Z,99.90
2022-08-23T00:45:49.383Z,99.90
2022-08-23T00:48:18.787Z,99.90
2022-08-23T00:50:51.596Z,99.90
2022-08-23T00:53:22.983Z,99.90
2022-08-23T00:55:55.112Z,99.90
2022-08-23T00:58:23.926Z,99.90
2022-08-23T01:00:54.153Z,99.90
2022-08-23T01:03:25.305Z,99.90
2022-08-23T01:06:02.664Z,99.90
2022-08-23T01:08:33.638Z,99.90
2022-08-23T01:11:08.620Z,99.90
2022-08-23T01:13:41.209Z,99.90
2022-08-23T01:16:14.892Z,99.90
2022-08-23T01:18:44.971Z,99.90
2022-08-23T01:21:18.369Z,99.90
2022-08-23T01:23:53.143Z,99.90
2022-08-23T01:26:23.519Z,99.90
2022-08-23T01:28:51.995Z,99.90
2022-08-23T01:31:21.896Z,99.90
2022-08-23T01:33:55.076Z,99.90
2022-08-23T01:36:22.997Z,99.90
2022-08-23T01:38:52.347Z,99.90
2022-08-23T01:41:20.553Z,99.90
2022-08-23T01:43:48.710Z,99.90
2022-08-23T01:46:19.197Z,99.90
2022-08-23T01:48:48.681Z,99.90
2022-08-23T01:51:18.749Z,99.90
2022-08-23T01:53:47.432Z,99.90
2022-08-23T01:56:19.859Z,99.90
2022-08-23T01:58:55.744Z,99.90
2022-08-23T02:01:23.743Z,99.90
2022-08-23T02:04:01.200Z,99.90
2022-08-23T02:06:33.047Z,99.90
2022-08-23T02:09:04.494Z,99.90
2022-08-23T02:11:37.339Z,99.90
2022-08-23T02:14:07.569Z,99.90
2022-08-23T02:16:38.507Z,99.90
2022-08-23T02:19:09.076Z,99.90
2022-08-23T02:21:38.010Z,99.90
2022-08-23T02:24:07.257Z,99.90
2022-08-23T02:26:38.020Z,99.90
2022-08-23T02:29:06.866Z,99.90
2022-08-23T02:31:35.582Z,99.90
2022-08-23T02:36:49.626Z,99.90
2022-08-23T02:39:18.934Z,99.90
2022-08-23T02:41:48.457Z,99.90
2022-08-23T02:44:17.174Z,99.90
2022-08-23T02:46:45.572Z,99.90
2022-08-23T02:49:14.931Z,99.90
2022-08-23T02:51:43.183Z,99.90
2022-08-23T02:54:11.180Z,99.90
2022-08-23T02:56:39.288Z,99.90
2022-08-23T02:59:08.988Z,99.90
2022-08-23T03:01:39.274Z,99.90
2022-08-23T03:04:09.385Z,99.90
2022-08-23T03:06:37.935Z,99.90
2022-08-23T03:09:07.556Z,99.90
2022-08-23T03:11:35.723Z,99.90
2022-08-23T03:14:03.810Z,99.90
2022-08-23T03:16:33.128Z,99.90
2022-08-23T03:19:02.327Z,99.90
2022-08-23T03:21:31.303Z,99.90
2022-08-23T03:24:00.804Z,99.90
2022-08-23T03:26:28.806Z,99.90
2022-08-23T03:28:56.980Z,99.90
2022-08-23T03:31:25.410Z,99.90
2022-08-23T03:33:58.736Z,99.90
2022-08-23T03:36:27.895Z,99.90
2022-08-23T03:38:56.689Z,99.90
2022-08-23T03:41:25.076Z,99.90
2022-08-23T03:43:53.217Z,99.90
2022-08-23T03:46:23.963Z,99.90
2022-08-23T03:48:52.458Z,99.90
2022-08-23T03:51:22.601Z,99.90
2022-08-23T03:53:51.205Z,99.90
2022-08-23T03:56:26.891Z,99.90
2022-08-23T03:58:55.838Z,99.90
2022-08-23T04:01:28.345Z,99.90
2022-08-23T04:03:59.230Z,99.90
2022-08-23T04:06:29.295Z,99.90
2022-08-23T04:08:57.501Z,99.90
2022-08-23T04:11:26.424Z,99.90
2022-08-23T04:13:54.634Z,99.90
2022-08-23T04:16:22.663Z,99.90
2022-08-23T04:18:50.631Z,99.90
2022-08-23T04:21:22.511Z,99.90
2022-08-23T04:23:52.734Z,99.90
2022-08-23T04:26:21.465Z,99.90
2022-08-23T04:28:49.460Z,99.90
2022-08-23T04:31:18.852Z,99.90
2022-08-23T04:33:52.301Z,99.90
2022-08-23T04:36:20.805Z,99.90
2022-08-23T04:38:52.992Z,99.90
2022-08-23T04:41:38.163Z,99.90
2022-08-23T04:44:06.236Z,99.90
2022-08-23T04:46:34.253Z,99.90
2022-08-23T04:49:02.402Z,99.90
2022-08-23T04:51:30.377Z,99.90
2022-08-23T04:53:59.675Z,99.90
2022-08-23T04:56:28.399Z,99.90
2022-08-23T04:58:56.363Z,99.90
2022-08-23T05:01:24.780Z,99.90
2022-08-23T05:03:52.715Z,99.90
2022-08-23T05:06:20.725Z,99.90
2022-08-23T05:08:48.855Z,99.90
2022-08-23T05:11:20.593Z,99.90
2022-08-23T05:13:48.732Z,99.90
2022-08-23T05:16:17.081Z,99.90
2022-08-23T05:18:45.297Z,99.10
2022-08-23T05:21:16.691Z,96.70
2022-08-23T05:23:45.320Z,94.10
2022-08-23T05:26:21.371Z,92.00
2022-08-23T05:28:50.591Z,90.20
2022-08-23T05:31:20.996Z,87.60
2022-08-23T05:33:49.968Z,84.00
2022-08-23T05:36:19.744Z,81.30
2022-08-23T05:38:48.221Z,78.10
2022-08-23T05:41:17.687Z,76.80
2022-08-23T05:43:50.478Z,74.30
2022-08-23T05:46:20.219Z,71.70
2022-08-23T05:48:51.163Z,69.40
2022-08-23T05:51:22.499Z,67.70
2022-08-23T05:53:52.999Z,67.10
2022-08-23T05:56:23.734Z,64.90
2022-08-23T05:58:59.138Z,62.90
2022-08-23T06:01:29.372Z,60.90
2022-08-23T06:03:59.634Z,58.90
2022-08-23T06:06:36.869Z,56.70
2022-08-23T06:09:07.087Z,55.20
2022-08-23T06:11:36.649Z,53.90
2022-08-23T06:14:09.430Z,52.90
2022-08-23T06:16:40.365Z,51.70
2022-08-23T06:19:10.234Z,50.80
2022-08-23T06:21:39.547Z,49.50
2022-08-23T06:24:08.203Z,48.90
2022-08-23T06:26:38.816Z,47.70
2022-08-23T06:29:11.396Z,47.20
2022-08-23T06:31:48.878Z,46.50
2022-08-23T06:34:21.396Z,45.30
2022-08-23T06:36:52.609Z,44.20
2022-08-23T06:39:23.815Z,43.00
2022-08-23T06:41:53.091Z,42.60
2022-08-23T06:44:22.693Z,42.20
2022-08-23T06:46:50.984Z,41.10
2022-08-23T06:49:19.293Z,39.80
2022-08-23T06:51:50.994Z,38.80
2022-08-23T06:54:22.960Z,38.70
2022-08-23T06:56:55.236Z,38.30
2022-08-23T06:59:25.002Z,37.40
2022-08-23T07:01:55.517Z,37.10
2022-08-23T07:04:25.889Z,36.60
2022-08-23T07:06:54.187Z,36.30
2022-08-23T07:09:22.962Z,35.40
2022-08-23T07:11:51.434Z,35.20
2022-08-23T07:14:21.899Z,34.60
2022-08-23T07:16:53.073Z,33.40
2022-08-23T07:19:24.291Z,33.10
2022-08-23T07:21:58.990Z,32.60
2022-08-23T07:24:32.984Z,32.10
2022-08-23T07:27:06.988Z,31.40
2022-08-23T07:29:37.712Z,31.50
2022-08-23T07:32:08.052Z,30.40
2022-08-23T07:34:37.037Z,30.10
2022-08-23T07:37:11.499Z,30.30
2022-08-23T07:39:44.516Z,30.00
2022-08-23T07:42:23.613Z,29.40
2022-08-23T07:44:53.595Z,29.30
2022-08-23T07:47:23.820Z,29.10
2022-08-23T07:49:52.090Z,28.80
2022-08-23T07:52:20.302Z,28.20
2022-08-23T07:54:49.636Z,28.20
2022-08-23T07:57:18.298Z,28.00
2022-08-23T07:59:48.627Z,28.00
2022-08-23T08:02:17.292Z,28.00
2022-08-23T08:04:46.994Z,27.70
2022-08-23T08:07:20.768Z,27.90
2022-08-23T08:09:49.589Z,28.50
2022-08-23T08:12:18.046Z,27.70
2022-08-23T08:14:48.399Z,27.50
2022-08-23T08:17:18.126Z,27.30
2022-08-23T08:19:48.389Z,26.90
2022-08-23T08:22:17.286Z,26.70
2022-08-23T08:24:45.564Z,26.60
2022-08-23T08:27:13.851Z,26.80
2022-08-23T08:29:44.041Z,27.10
2022-08-23T08:32:14.164Z,27.10
2022-08-23T08:34:43.107Z,27.20
2022-08-23T08:37:12.901Z,27.40
2022-08-23T08:39:45.808Z,27.50
2022-08-23T08:42:54.960Z,27.30
2022-08-23T08:45:26.704Z,27.60
2022-08-23T08:48:00.875Z,28.50
2022-08-23T08:50:36.837Z,28.60
2022-08-23T08:53:10.993Z,28.50
2022-08-23T08:55:45.984Z,28.40
2022-08-23T08:58:18.211Z,27.80
2022-08-23T09:00:47.581Z,27.00
2022-08-23T09:03:20.496Z,26.80
2022-08-23T09:05:53.838Z,26.40
2022-08-23T09:08:40.145Z,26.10
2022-08-23T09:11:15.087Z,25.80
2022-08-23T09:14:06.307Z,25.60
2022-08-23T09:16:49.138Z,25.50
2022-08-23T09:19:21.488Z,25.20
2022-08-23T09:21:56.739Z,25.70
2022-08-23T09:24:27.971Z,26.10
2022-08-23T09:26:56.456Z,24.90
2022-08-23T09:29:31.348Z,24.60
2022-08-23T09:32:02.749Z,24.20
2022-08-23T09:34:42.568Z,24.10
2022-08-23T09:37:19.617Z,23.80
2022-08-23T09:39:51.454Z,24.30
2022-08-23T09:42:32.510Z,24.20
2022-08-23T09:45:01.372Z,23.70
2022-08-23T09:47:37.775Z,23.80
2022-08-23T09:50:24.429Z,24.00
2022-08-23T09:52:57.514Z,24.30
2022-08-23T09:55:35.351Z,24.00
2022-08-23T09:58:07.009Z,23.80
2022-08-23T10:00:38.332Z,24.10
2022-08-23T10:03:28.045Z,24.80
2022-08-23T10:05:57.980Z,25.00
2022-08-23T10:08:29.649Z,25.00
2022-08-23T10:11:17.238Z,25.20
2022-08-23T10:13:46.447Z,25.10
2022-08-23T10:16:22.166Z,25.00
2022-08-23T10:18:59.917Z,24.90
2022-08-23T10:21:39.117Z,25.10
2022-08-23T10:24:28.373Z,25.20
2022-08-23T10:27:47.330Z,25.40
2022-08-23T10:30:18.064Z,25.30
2022-08-23T10:32:54.688Z,25.30
2022-08-23T10:35:32.315Z,24.80
2022-08-23T10:38:19.764Z,24.90
2022-08-23T10:40:59.203Z,25.00
2022-08-23T10:43:38.643Z,24.60
2022-08-23T10:46:09.095Z,25.00
2022-08-23T10:48:49.375Z,24.90
2022-08-23T10:51:31.760Z,25.20
2022-08-23T10:54:06.585Z,25.00
2022-08-23T10:56:38.682Z,25.10
2022-08-23T10:59:15.468Z,24.90
2022-08-23T11:01:50.655Z,25.70
2022-08-23T11:04:28.337Z,25.30
2022-08-23T11:06:59.175Z,24.70
2022-08-23T11:09:53.362Z,24.90
2022-08-23T11:12:30.498Z,24.90
2022-08-23T11:15:31.798Z,25.50
2022-08-23T11:18:03.908Z,25.20
2022-08-23T11:21:08.158Z,25.50
2022-08-23T11:23:46.222Z,24.80
2022-08-23T11:26:56.323Z,24.60
2022-08-23T11:29:29.805Z,24.70
2022-08-23T11:32:04.491Z,25.30
2022-08-23T11:34:41.686Z,25.20
2022-08-23T11:37:30.075Z,25.50
2022-08-23T11:40:11.770Z,25.70
2022-08-23T11:42:53.984Z,25.90
2022-08-23T11:45:33.308Z,25.80
2022-08-23T11:48:20.310Z,25.70
2022-08-23T11:51:10.357Z,26.30
2022-08-23T11:53:56.093Z,26.90
2022-08-23T11:56:45.648Z,27.40
2022-08-23T11:59:38.466Z,27.40
2022-08-23T12:02:37.214Z,27.80
2022-08-23T12:05:21.511Z,28.20
2022-08-23T12:07:55.554Z,29.10
2022-08-23T12:11:05.305Z,28.80
2022-08-23T12:14:00.122Z,29.60
2022-08-23T12:16:38.455Z,29.70
2022-08-23T12:19:22.356Z,30.00
2022-08-23T12:21:57.705Z,30.30
2022-08-23T12:24:32.881Z,30.40
2022-08-23T12:27:22.921Z,30.70
2022-08-23T12:29:59.808Z,31.20
2022-08-23T12:32:36.356Z,30.90
2022-08-23T12:35:19.012Z,32.30
2022-08-23T12:38:01.539Z,31.60
2022-08-23T12:40:34.037Z,32.30
2022-08-23T12:43:09.989Z,32.30
2022-08-23T12:45:49.698Z,33.00
2022-08-23T12:48:20.621Z,33.40
2022-08-23T12:50:55.629Z,33.80
2022-08-23T12:53:31.430Z,34.50
2022-08-23T12:56:06.583Z,35.60
2022-08-23T12:58:40.652Z,35.50
2022-08-23T13:01:19.164Z,35.60
2022-08-23T13:03:50.789Z,35.40
2022-08-23T13:06:25.632Z,35.40
2022-08-23T13:09:00.390Z,35.70
2022-08-23T13:11:32.626Z,35.70
2022-08-23T13:14:03.366Z,35.50
2022-08-23T13:16:45.581Z,36.30
2022-08-23T13:19:20.862Z,35.60
2022-08-23T13:21:54.453Z,35.80
2022-08-23T13:24:39.193Z,36.10
2022-08-23T13:27:21.345Z,36.10
2022-08-23T13:29:56.265Z,36.50
2022-08-23T13:32:43.962Z,36.70
2022-08-23T13:35:36.616Z,36.70
2022-08-23T13:38:20.844Z,36.50
2022-08-23T13:40:57.410Z,35.10
2022-08-23T13:43:29.947Z,35.30
2022-08-23T13:46:01.767Z,35.30
2022-08-23T13:48:33.344Z,35.40
2022-08-23T13:51:29.446Z,35.70
2022-08-23T13:54:00.069Z,36.00
2022-08-23T13:56:32.836Z,35.70
2022-08-23T13:59:03.519Z,35.70
2022-08-23T14:01:57.066Z,35.70
2022-08-23T14:04:36.091Z,36.10
2022-08-23T14:07:06.518Z,36.10
2022-08-23T14:09:36.959Z,36.40
2022-08-23T14:12:13.867Z,35.70
2022-08-23T14:14:44.503Z,36.00
2022-08-23T14:17:16.470Z,36.50
2022-08-23T14:22:36.875Z,37.40
2022-08-23T14:25:06.780Z,37.40
2022-08-23T14:27:36.479Z,36.90
2022-08-23T14:30:06.148Z,36.60
2022-08-23T14:32:34.599Z,35.90
2022-08-23T14:35:05.987Z,36.60
2022-08-23T14:40:23.080Z,37.20
2022-08-23T14:42:53.056Z,37.20
2022-08-23T14:45:22.119Z,37.50
2022-08-23T14:47:52.777Z,37.40
2022-08-23T14:50:21.406Z,37.40
2022-08-23T14:52:52.900Z,37.60
2022-08-23T14:55:24.845Z,38.00
2022-08-23T14:57:55.150Z,37.80
2022-08-23T15:00:23.812Z,37.80
2022-08-23T15:02:52.243Z,37.90
2022-08-23T15:05:22.133Z,38.60
2022-08-23T15:07:53.619Z,38.90
2022-08-23T15:13:21.736Z,37.50
2022-08-23T15:15:56.076Z,37.90
2022-08-23T15:18:24.666Z,37.90
2022-08-23T15:20:56.517Z,37.70
2022-08-23T15:23:26.008Z,37.40
2022-08-23T15:26:03.373Z,37.90
2022-08-23T15:28:32.900Z,38.10
2022-08-23T15:31:00.916Z,37.90
2022-08-23T15:33:30.780Z,38.20
2022-08-23T15:36:01.855Z,38.60
2022-08-23T15:38:36.150Z,38.40
2022-08-23T15:41:10.785Z,38.70
2022-08-23T15:43:40.285Z,39.80
2022-08-23T15:46:10.388Z,39.60
2022-08-23T15:48:44.951Z,40.10
2022-08-23T15:51:13.227Z,39.30
2022-08-23T15:53:41.760Z,39.20
2022-08-23T15:56:16.324Z,40.20
2022-08-23T15:58:46.127Z,39.50
2022-08-23T16:01:14.254Z,39.70
2022-08-23T16:03:45.233Z,40.00
2022-08-23T16:06:19.319Z,40.40
2022-08-23T16:09:02.614Z,39.70
2022-08-23T16:11:31.903Z,39.20
2022-08-23T16:14:01.713Z,40.10
2022-08-23T16:16:32.090Z,40.00
2022-08-23T16:19:01.251Z,41.40
2022-08-23T16:21:30.771Z,42.00
2022-08-23T16:24:00.862Z,42.60
2022-08-23T16:26:34.905Z,42.40
2022-08-23T16:29:11.270Z,43.00
2022-08-23T16:31:40.023Z,43.20
2022-08-23T16:34:11.362Z,43.20
2022-08-23T16:36:42.467Z,43.50
2022-08-23T16:39:12.544Z,44.00
2022-08-23T16:41:40.507Z,44.00
2022-08-23T16:44:10.124Z,44.60
2022-08-23T16:46:41.342Z,45.10
2022-08-23T16:49:09.638Z,45.30
2022-08-23T16:51:38.015Z,45.00
2022-08-23T16:54:08.277Z,45.30
2022-08-23T16:56:37.829Z,45.40
2022-08-23T16:59:08.549Z,45.90
2022-08-23T17:01:48.422Z,46.10
2022-08-23T17:04:17.150Z,46.10
2022-08-23T17:06:46.367Z,46.50
2022-08-23T17:09:15.773Z,46.30
2022-08-23T17:11:45.312Z,46.40
2022-08-23T17:14:13.499Z,46.20
2022-08-23T17:16:44.016Z,46.50
2022-08-23T17:19:25.882Z,46.60
2022-08-23T17:21:54.237Z,46.40
2022-08-23T17:24:24.387Z,46.50
2022-08-23T17:26:52.538Z,46.60
2022-08-23T17:29:20.640Z,47.00
2022-08-23T17:31:48.718Z,47.20
2022-08-23T17:34:18.178Z,47.20
2022-08-23T17:36:48.851Z,47.60
2022-08-23T17:39:19.671Z,47.80
2022-08-23T17:41:47.713Z,48.00
2022-08-23T17:44:16.232Z,48.00
2022-08-23T17:46:46.195Z,48.10
2022-08-23T17:49:15.125Z,47.90
2022-08-23T17:51:45.586Z,47.20
2022-08-23T17:54:16.400Z,47.60
2022-08-23T17:56:50.154Z,46.90
2022-08-23T17:59:18.502Z,46.70
2022-08-23T18:01:46.662Z,46.80
2022-08-23T18:04:15.714Z,47.00
2022-08-23T18:06:45.717Z,47.20
2022-08-23T18:09:13.829Z,47.50
2022-08-23T18:11:42.021Z,47.60
2022-08-23T18:14:10.195Z,47.90
2022-08-23T18:16:38.592Z,48.20
2022-08-23T18:19:11.223Z,48.30
2022-08-23T18:21:41.579Z,48.50
2022-08-23T18:24:11.312Z,48.40
2022-08-23T18:26:57.481Z,48.80
2022-08-23T18:29:25.935Z,48.50
2022-08-23T18:31:54.045Z,48.70
2022-08-23T18:34:22.381Z,48.80
2022-08-23T18:36:50.777Z,48.90
2022-08-23T18:39:31.847Z,49.00
2022-08-23T18:42:00.879Z,49.00
2022-08-23T18:44:29.114Z,49.40
2022-08-23T18:46:57.311Z,49.40
2022-08-23T18:49:25.271Z,49.60
2022-08-23T18:51:53.377Z,49.60
2022-08-23T18:54:22.727Z,49.50
2022-08-23T18:56:50.666Z,49.40
2022-08-23T18:59:18.980Z,49.60
2022-08-23T19:01:47.556Z,50.10
2022-08-23T19:04:16.383Z,49.50
2022-08-23T19:06:45.396Z,49.10
2022-08-23T19:09:13.864Z,49.30
2022-08-23T19:11:44.341Z,49.50
2022-08-23T19:14:13.077Z,49.30
2022-08-23T19:16:47.201Z,49.50
2022-08-23T19:19:16.441Z,49.70
2022-08-23T19:21:44.708Z,49.80
2022-08-23T19:24:12.735Z,50.20
2022-08-23T19:26:44.394Z,50.30
2022-08-23T19:29:14.599Z,50.60
2022-08-23T19:31:46.644Z,50.90
2022-08-23T19:34:15.249Z,51.90
2022-08-23T19:36:46.992Z,53.00
2022-08-23T19:39:18.499Z,54.10
2022-08-23T19:41:46.998Z,54.80
2022-08-23T19:44:17.779Z,55.50
2022-08-23T19:46:45.962Z,56.20
2022-08-23T19:49:15.303Z,56.80
2022-08-23T19:51:43.833Z,57.40
2022-08-23T19:54:13.131Z,58.20
2022-08-23T19:56:43.422Z,58.70
2022-08-23T19:59:17.463Z,59.40
2022-08-23T20:01:45.572Z,59.90
2022-08-23T20:04:13.923Z,60.60
2022-08-23T20:06:41.893Z,61.20
2022-08-23T20:09:10.476Z,61.80
2022-08-23T20:11:39.173Z,62.30
2022-08-23T20:14:07.846Z,62.70
2022-08-23T20:16:38.218Z,63.20
2022-08-23T20:19:09.481Z,63.80
2022-08-23T20:21:38.106Z,64.30
2022-08-23T20:24:05.775Z,64.90
2022-08-23T20:26:36.019Z,65.30
2022-08-23T20:29:05.578Z,66.00
2022-08-23T20:31:36.998Z,66.50
2022-08-23T20:34:07.199Z,67.10
2022-08-23T20:36:35.565Z,67.60
2022-08-23T20:39:03.655Z,68.30
2022-08-23T20:41:33.623Z,68.70
2022-08-23T20:44:02.740Z,69.40
2022-08-23T20:46:31.340Z,70.40
2022-08-23T20:49:01.201Z,70.90
2022-08-23T20:51:30.007Z,71.70
2022-08-23T20:54:00.149Z,72.40
2022-08-23T20:56:29.087Z,73.10
2022-08-23T20:58:57.376Z,74.00
2022-08-23T21:01:26.081Z,74.90
2022-08-23T21:03:54.325Z,75.60
2022-08-23T21:06:26.053Z,76.60
2022-08-23T21:08:56.632Z,77.50
2022-08-23T21:11:26.119Z,78.50
2022-08-23T21:13:54.627Z,79.80
2022-08-23T21:16:23.229Z,81.00
2022-08-23T21:18:52.092Z,83.00
2022-08-23T21:21:25.330Z,83.60
2022-08-23T21:23:53.910Z,85.00
2022-08-23T21:26:23.388Z,86.40
2022-08-23T21:28:52.328Z,87.90
2022-08-23T21:31:22.521Z,89.50
2022-08-23T21:33:51.373Z,90.40
2022-08-23T21:36:20.455Z,91.10
2022-08-23T21:38:50.429Z,91.70
2022-08-23T21:41:36.252Z,92.30
2022-08-23T21:44:06.877Z,93.30
2022-08-23T21:46:35.692Z,93.60
2022-08-23T21:49:03.952Z,94.00
2022-08-23T21:51:32.185Z,94.60
2022-08-23T21:54:04.420Z,95.20
2022-08-23T21:56:32.703Z,95.80
2022-08-23T21:59:02.695Z,96.40
2022-08-23T22:01:34.210Z,97.00
2022-08-23T22:04:03.174Z,97.60
2022-08-23T22:06:31.226Z,98.20
2022-08-23T22:08:59.287Z,98.70
2022-08-23T22:11:29.097Z,99.10
2022-08-23T22:14:00.341Z,99.60
2022-08-23T22:16:28.374Z,99.90
2022-08-23T22:18:56.380Z,99.90
2022-08-23T22:21:24.254Z,99.90
2022-08-23T22:23:52.633Z,99.90
2022-08-23T22:26:20.891Z,99.90
2022-08-23T22:28:50.164Z,99.90
2022-08-23T22:31:18.116Z,99.90
2022-08-23T22:33:46.385Z,99.90
2022-08-23T22:36:17.592Z,99.90
2022-08-23T22:38:46.670Z,99.90
2022-08-23T22:41:17.540Z,99.90
2022-08-23T22:43:45.668Z,99.90
2022-08-23T22:46:15.061Z,99.90
2022-08-23T22:48:43.075Z,99.90
2022-08-23T22:51:13.196Z,99.90
2022-08-23T22:53:49.289Z,99.90
2022-08-23T22:56:21.759Z,99.90
2022-08-23T22:58:52.658Z,99.90
2022-08-23T23:01:24.457Z,99.90
2022-08-23T23:03:53.095Z,99.90
2022-08-23T23:06:21.784Z,99.90
2022-08-23T23:08:50.218Z,99.90
2022-08-23T23:11:19.619Z,99.90
2022-08-23T23:13:48.388Z,99.90
2022-08-23T23:16:19.331Z,99.90
2022-08-23T23:19:09.117Z,99.90
2022-08-23T23:21:37.527Z,99.90
2022-08-23T23:24:06.041Z,99.90
2022-08-23T23:26:33.946Z,99.90
2022-08-23T23:29:01.853Z,99.90
2022-08-23T23:31:29.747Z,99.90
2022-08-23T23:33:59.604Z,99.90
2022-08-23T23:36:27.688Z,99.90
2022-08-23T23:38:55.654Z,99.90
2022-08-23T23:41:23.895Z,99.90
2022-08-23T23:43:51.853Z,99.90
2022-08-23T23:46:21.804Z,99.90
2022-08-23T23:48:51.252Z,99.90
2022-08-23T23:51:24.100Z,99.90
2022-08-23T23:53:53.165Z,99.90
2022-08-23T23:56:22.679Z,99.90
2022-08-23T23:58:52.900Z,99.90
